createdAt,value
2022-09-21T00:01:11.662Z,11.85
2022-09-21T00:03:39.716Z,11.65
2022-09-21T00:06:09.421Z,11.82
2022-09-21T00:08:36.595Z,11.84
2022-09-21T00:11:04.862Z,11.72
2022-09-21T00:13:34.527Z,11.78
2022-09-21T00:16:02.026Z,11.83
2022-09-21T00:18:28.987Z,11.64
2022-09-21T00:20:55.923Z,11.77
2022-09-21T00:23:23.950Z,11.76
2022-09-21T00:25:50.842Z,11.76
2022-09-21T00:28:17.697Z,11.58
2022-09-21T00:30:44.640Z,11.70
2022-09-21T00:33:11.506Z,11.49
2022-09-21T00:35:38.646Z,11.77
2022-09-21T00:38:06.279Z,11.78
2022-09-21T00:40:33.204Z,11.43
2022-09-21T00:43:17.319Z,11.74
2022-09-21T00:45:48.536Z,11.66
2022-09-21T00:48:15.709Z,11.50
2022-09-21T00:50:49.341Z,11.70
2022-09-21T00:53:16.567Z,11.69
2022-09-21T00:55:48.336Z,11.72
2022-09-21T00:58:18.963Z,11.68
2022-09-21T01:00:45.944Z,11.70
2022-09-21T01:03:13.605Z,11.70
2022-09-21T01:05:40.528Z,11.52
2022-09-21T01:08:12.501Z,11.71
2022-09-21T01:11:22.840Z,11.43
2022-09-21T01:13:52.795Z,11.65
2022-09-21T01:16:23.473Z,11.64
2022-09-21T01:19:02.335Z,11.42
2022-09-21T01:21:34.781Z,11.61
2022-09-21T01:24:36.533Z,11.54
2022-09-21T01:27:33.565Z,11.60
2022-09-21T01:30:04.820Z,11.49
2022-09-21T01:32:37.560Z,11.64
2022-09-21T01:35:15.982Z,11.48
2022-09-21T01:37:48.753Z,11.53
2022-09-21T01:40:38.975Z,11.61
2022-09-21T01:43:09.547Z,11.63
2022-09-21T01:45:41.127Z,11.50
2022-09-21T01:48:08.873Z,11.34
2022-09-21T01:50:41.591Z,11.56
2022-09-21T01:53:15.632Z,11.49
2022-09-21T01:55:53.918Z,11.33
2022-09-21T01:58:42.349Z,11.58
2022-09-21T02:01:13.041Z,11.22
2022-09-21T02:03:44.561Z,11.48
2022-09-21T02:06:11.792Z,11.56
2022-09-21T02:08:39.302Z,11.43
2022-09-21T02:11:07.170Z,11.29
2022-09-21T02:13:39.878Z,11.54
2022-09-21T02:16:44.432Z,11.55
2022-09-21T02:19:34.609Z,11.51
2022-09-21T02:22:20.203Z,11.49
2022-09-21T02:24:54.965Z,11.52
2022-09-21T02:27:30.833Z,11.50
2022-09-21T02:30:09.650Z,11.49
2022-09-21T02:32:59.379Z,11.48
2022-09-21T02:35:44.736Z,11.49
2022-09-21T02:38:49.729Z,11.52
2022-09-21T02:41:20.330Z,11.33
2022-09-21T02:43:59.024Z,11.50
2022-09-21T02:46:33.280Z,11.15
2022-09-21T02:49:09.326Z,11.24
2022-09-21T02:51:49.883Z,11.52
2022-09-21T02:54:25.422Z,11.14
2022-09-21T02:56:54.157Z,11.26
2022-09-21T02:59:24.319Z,11.48
2022-09-21T03:01:52.287Z,11.49
2022-09-21T03:04:19.730Z,11.48
2022-09-21T03:06:46.541Z,11.42
2022-09-21T03:09:13.622Z,11.26
2022-09-21T03:11:42.547Z,11.35
2022-09-21T03:14:09.829Z,11.48
2022-09-21T03:16:37.368Z,11.47
2022-09-21T03:19:05.269Z,11.39
2022-09-21T03:21:32.503Z,11.26
2022-09-21T03:23:59.364Z,10.99
2022-09-21T03:26:26.464Z,11.08
2022-09-21T03:28:56.284Z,11.00
2022-09-21T03:31:23.206Z,11.40
2022-09-21T03:33:50.221Z,11.42
2022-09-21T03:36:17.338Z,11.43
2022-09-21T03:38:44.561Z,11.16
2022-09-21T03:41:11.520Z,11.19
2022-09-21T03:43:38.395Z,11.23
2022-09-21T03:46:05.491Z,11.42
2022-09-21T03:48:32.855Z,11.26
2022-09-21T03:50:59.912Z,11.41
2022-09-21T03:53:26.779Z,11.39
2022-09-21T03:55:53.658Z,10.96
2022-09-21T03:58:20.778Z,11.34
2022-09-21T04:00:47.665Z,11.31
2022-09-21T04:03:14.571Z,11.27
2022-09-21T04:05:41.470Z,11.24
2022-09-21T04:08:10.147Z,11.40
2022-09-21T04:10:37.196Z,11.17
2022-09-21T04:13:04.510Z,11.42
2022-09-21T04:15:31.576Z,11.34
2022-09-21T04:17:59.333Z,11.33
2022-09-21T04:20:26.734Z,11.19
2022-09-21T04:22:53.611Z,11.36
2022-09-21T04:25:20.752Z,11.29
2022-09-21T04:27:47.968Z,11.19
2022-09-21T04:30:16.485Z,11.34
2022-09-21T04:32:44.052Z,11.21
2022-09-21T04:35:11.053Z,11.37
2022-09-21T04:37:38.005Z,11.38
2022-09-21T04:40:06.093Z,11.39
2022-09-21T04:42:33.282Z,11.37
2022-09-21T04:45:00.200Z,11.35
2022-09-21T04:47:30.259Z,11.37
2022-09-21T04:49:57.438Z,11.18
2022-09-21T04:52:24.461Z,11.27
2022-09-21T04:54:51.338Z,11.29
2022-09-21T04:57:18.315Z,11.31
2022-09-21T04:59:45.244Z,11.26
2022-09-21T05:02:12.355Z,11.04
2022-09-21T05:04:39.222Z,11.08
2022-09-21T05:07:06.637Z,11.05
2022-09-21T05:09:52.070Z,11.23
2022-09-21T05:12:18.918Z,11.20
2022-09-21T05:14:45.852Z,11.27
2022-09-21T05:17:13.322Z,10.78
2022-09-21T05:19:41.094Z,11.25
2022-09-21T05:22:08.564Z,11.26
2022-09-21T05:24:35.481Z,11.25
2022-09-21T05:27:02.454Z,11.02
2022-09-21T05:29:29.659Z,11.04
2022-09-21T05:31:56.570Z,11.22
2022-09-21T05:34:36.916Z,11.22
2022-09-21T05:37:24.421Z,11.17
2022-09-21T05:39:51.787Z,11.16
2022-09-21T05:42:19.033Z,11.19
2022-09-21T05:44:46.354Z,11.27
2022-09-21T05:47:34.861Z,11.29
2022-09-21T05:50:24.616Z,11.29
2022-09-21T05:53:11.405Z,11.23
2022-09-21T05:56:03.575Z,11.25
2022-09-21T05:59:08.872Z,11.23
2022-09-21T06:01:41.931Z,11.25
2022-09-21T06:04:15.141Z,11.22
2022-09-21T06:06:42.025Z,10.99
2022-09-21T06:09:08.928Z,11.29
2022-09-21T06:11:36.545Z,11.23
2022-09-21T06:14:03.413Z,11.19
2022-09-21T06:16:43.575Z,11.36
2022-09-21T06:19:13.376Z,11.33
2022-09-21T06:21:40.359Z,11.38
2022-09-21T06:24:07.378Z,11.23
2022-09-21T06:26:34.290Z,11.38
2022-09-21T06:29:01.309Z,11.10
2022-09-21T06:31:28.239Z,11.37
2022-09-21T06:33:55.291Z,11.41
2022-09-21T06:36:22.288Z,11.40
2022-09-21T06:38:49.191Z,11.20
2022-09-21T06:41:20.858Z,11.29
2022-09-21T06:43:48.393Z,11.33
2022-09-21T06:46:15.417Z,11.38
2022-09-21T06:48:42.381Z,11.21
2022-09-21T06:51:10.104Z,11.41
2022-09-21T06:53:37.263Z,11.42
2022-09-21T06:56:08.881Z,11.46
2022-09-21T06:58:37.905Z,11.40
2022-09-21T07:01:09.615Z,11.38
2022-09-21T07:03:37.423Z,11.42
2022-09-21T07:06:05.510Z,11.49
2022-09-21T07:11:21.154Z,11.41
2022-09-21T07:13:48.071Z,11.29
2022-09-21T07:16:15.083Z,11.12
2022-09-21T07:18:44.034Z,11.15
2022-09-21T07:21:12.051Z,11.28
2022-09-21T07:23:39.274Z,11.40
2022-09-21T07:26:14.017Z,11.29
2022-09-21T07:28:41.489Z,11.27
2022-09-21T07:31:11.082Z,11.47
2022-09-21T07:33:38.438Z,11.52
2022-09-21T07:36:10.570Z,11.26
2022-09-21T07:38:39.952Z,11.35
2022-09-21T07:41:08.414Z,11.11
2022-09-21T07:43:35.626Z,11.32
2022-09-21T07:46:02.633Z,11.23
2022-09-21T07:48:30.538Z,11.27
2022-09-21T07:51:05.065Z,11.39
2022-09-21T07:53:33.676Z,11.48
2022-09-21T07:56:08.486Z,11.46
2022-09-21T07:58:55.202Z,11.63
2022-09-21T08:01:22.990Z,11.38
2022-09-21T08:03:51.128Z,11.55
2022-09-21T08:06:19.263Z,11.42
2022-09-21T08:08:48.130Z,11.39
2022-09-21T08:11:28.314Z,11.49
2022-09-21T08:13:57.746Z,11.55
2022-09-21T08:16:25.729Z,11.32
2022-09-21T08:18:53.149Z,11.60
2022-09-21T08:21:20.675Z,11.45
2022-09-21T08:23:50.888Z,11.66
2022-09-21T08:26:19.852Z,11.77
2022-09-21T08:28:51.230Z,11.59
2022-09-21T08:31:21.086Z,11.78
2022-09-21T08:33:50.037Z,11.66
2022-09-21T08:36:18.325Z,9.83
2022-09-21T08:38:45.695Z,11.56
2022-09-21T08:41:43.467Z,11.83
2022-09-21T08:44:14.289Z,11.81
2022-09-21T08:46:43.563Z,11.65
2022-09-21T08:49:19.738Z,11.67
2022-09-21T08:52:03.439Z,11.91
2022-09-21T08:54:42.457Z,12.01
2022-09-21T08:57:14.023Z,11.90
2022-09-21T08:59:50.598Z,12.00
2022-09-21T09:02:45.208Z,12.06
2022-09-21T09:05:19.632Z,12.11
2022-09-21T09:08:08.522Z,12.13
2022-09-21T09:10:53.839Z,12.23
2022-09-21T09:13:44.227Z,12.24
2022-09-21T09:16:29.825Z,12.24
2022-09-21T09:19:35.661Z,12.31
2022-09-21T09:22:07.101Z,12.41
2022-09-21T09:24:41.932Z,12.31
2022-09-21T09:27:24.006Z,12.37
2022-09-21T09:30:04.048Z,12.28
2022-09-21T09:32:45.695Z,12.42
2022-09-21T09:35:26.502Z,12.54
2022-09-21T09:37:59.742Z,12.58
2022-09-21T09:40:59.243Z,12.61
2022-09-21T09:43:41.867Z,12.42
2022-09-21T09:46:18.240Z,12.60
2022-09-21T09:49:06.479Z,12.58
2022-09-21T09:51:36.817Z,12.50
2022-09-21T09:54:05.841Z,12.68
2022-09-21T09:56:36.534Z,12.73
2022-09-21T09:59:10.880Z,12.32
2022-09-21T10:01:44.728Z,12.71
2022-09-21T10:04:14.954Z,12.72
2022-09-21T10:06:46.441Z,12.77
2022-09-21T10:09:32.152Z,11.96
2022-09-21T10:12:05.783Z,12.04
2022-09-21T10:14:36.542Z,12.59
2022-09-21T10:17:08.149Z,12.67
2022-09-21T10:19:35.421Z,12.77
2022-09-21T10:22:05.249Z,12.83
2022-09-21T10:24:37.538Z,12.96
2022-09-21T10:27:12.525Z,13.06
2022-09-21T10:29:41.340Z,13.02
2022-09-21T10:32:15.095Z,12.96
2022-09-21T10:35:08.230Z,12.90
2022-09-21T10:37:40.258Z,13.02
2022-09-21T10:40:24.554Z,13.11
2022-09-21T10:42:56.504Z,13.10
2022-09-21T10:45:28.290Z,13.01
2022-09-21T10:48:08.547Z,13.05
2022-09-21T10:50:40.250Z,13.01
2022-09-21T10:53:09.808Z,13.09
2022-09-21T10:56:11.984Z,13.13
2022-09-21T10:59:21.648Z,13.13
2022-09-21T11:01:54.918Z,13.21
2022-09-21T11:04:31.605Z,13.13
2022-09-21T11:07:10.735Z,12.97
2022-09-21T11:10:15.953Z,13.15
2022-09-21T11:12:55.597Z,12.97
2022-09-21T11:15:51.522Z,12.97
2022-09-21T11:18:33.673Z,13.21
2022-09-21T11:21:14.879Z,12.99
2022-09-21T11:23:51.737Z,13.09
2022-09-21T11:26:33.204Z,13.16
2022-09-21T11:29:10.896Z,13.03
2022-09-21T11:31:49.956Z,13.31
2022-09-21T11:34:44.571Z,13.14
2022-09-21T11:38:10.348Z,13.36
2022-09-21T11:41:02.700Z,13.35
2022-09-21T11:43:43.087Z,13.42
2022-09-21T11:46:38.687Z,13.43
2022-09-21T11:49:27.931Z,13.44
2022-09-21T11:51:59.417Z,13.45
2022-09-21T11:54:35.436Z,13.47
2022-09-21T11:57:24.370Z,13.48
2022-09-21T12:00:00.505Z,13.22
2022-09-21T12:02:52.330Z,13.44
2022-09-21T12:05:22.988Z,13.48
2022-09-21T12:08:21.509Z,13.26
2022-09-21T12:11:06.491Z,13.39
2022-09-21T12:13:41.264Z,13.10
2022-09-21T12:16:19.554Z,13.04
2022-09-21T12:18:48.339Z,13.24
2022-09-21T12:21:25.874Z,13.11
2022-09-21T12:23:56.858Z,13.07
2022-09-21T12:26:30.017Z,13.09
2022-09-21T12:29:15.031Z,12.92
2022-09-21T12:31:58.488Z,12.60
2022-09-21T12:34:32.204Z,12.61
2022-09-21T12:37:07.806Z,12.62
2022-09-21T12:39:51.691Z,12.56
2022-09-21T12:42:41.770Z,12.13
2022-09-21T12:45:33.186Z,12.34
2022-09-21T12:48:02.945Z,12.24
2022-09-21T12:50:29.843Z,12.09
2022-09-21T12:52:57.587Z,11.80
2022-09-21T12:55:48.948Z,11.88
2022-09-21T12:58:16.482Z,11.98
2022-09-21T13:01:04.910Z,11.94
2022-09-21T13:03:38.010Z,11.86
2022-09-21T13:06:15.866Z,11.74
2022-09-21T13:08:47.028Z,11.75
2022-09-21T13:11:21.075Z,11.63
2022-09-21T13:13:58.410Z,11.90
2022-09-21T13:16:35.536Z,11.83
2022-09-21T13:19:21.938Z,11.67
2022-09-21T13:22:22.908Z,11.86
2022-09-21T13:25:06.423Z,11.72
2022-09-21T13:28:09.315Z,11.55
2022-09-21T13:30:43.381Z,11.60
2022-09-21T13:33:19.340Z,11.40
2022-09-21T13:36:02.417Z,11.26
2022-09-21T13:38:41.327Z,11.28
2022-09-21T13:41:17.569Z,11.23
2022-09-21T13:44:01.136Z,11.13
2022-09-21T13:46:37.290Z,11.06
2022-09-21T13:49:10.693Z,10.96
2022-09-21T13:52:01.147Z,10.96
2022-09-21T13:54:36.219Z,10.62
2022-09-21T13:57:18.974Z,10.68
2022-09-21T13:59:49.458Z,10.70
2022-09-21T14:02:35.315Z,10.78
2022-09-21T14:05:10.621Z,10.79
2022-09-21T14:10:10.183Z,10.92
2022-09-21T14:12:45.785Z,10.79
2022-09-21T14:15:19.535Z,10.90
2022-09-21T14:18:15.815Z,10.92
2022-09-21T14:21:08.279Z,10.89
2022-09-21T14:23:37.416Z,10.76
2022-09-21T14:26:39.638Z,10.91
2022-09-21T14:29:25.447Z,10.89
2022-09-21T14:31:57.520Z,10.74
2022-09-21T14:34:29.372Z,10.89
2022-09-21T14:36:59.912Z,10.59
2022-09-21T14:39:32.168Z,10.81
2022-09-21T14:42:12.539Z,10.86
2022-09-21T14:44:42.657Z,10.84
2022-09-21T14:47:18.105Z,10.84
2022-09-21T14:50:07.448Z,10.78
2022-09-21T14:53:01.903Z,10.75
2022-09-21T14:55:40.451Z,10.75
2022-09-21T14:58:32.187Z,10.63
2022-09-21T15:01:26.117Z,10.72
2022-09-21T15:04:11.992Z,10.71
2022-09-21T15:07:08.480Z,10.56
2022-09-21T15:10:12.450Z,10.58
2022-09-21T15:12:58.191Z,10.59
2022-09-21T15:15:41.482Z,10.62
2022-09-21T15:18:20.814Z,10.52
2022-09-21T15:21:03.648Z,10.51
2022-09-21T15:23:39.371Z,10.68
2022-09-21T15:26:24.128Z,10.68
2022-09-21T15:29:10.880Z,10.56
2022-09-21T15:31:40.081Z,10.75
2022-09-21T15:34:09.138Z,10.75
2022-09-21T15:36:39.931Z,10.79
2022-09-21T15:39:07.536Z,10.59
2022-09-21T15:41:39.705Z,10.81
2022-09-21T15:44:21.794Z,10.83
2022-09-21T15:46:58.022Z,10.62
2022-09-21T15:49:25.066Z,10.70
2022-09-21T15:52:03.005Z,10.79
2022-09-21T15:54:36.907Z,10.72
2022-09-21T15:57:24.192Z,10.93
2022-09-21T15:59:51.682Z,10.83
2022-09-21T16:02:25.513Z,10.86
2022-09-21T16:04:52.921Z,10.41
2022-09-21T16:07:35.381Z,10.62
2022-09-21T16:10:24.179Z,10.41
2022-09-21T16:12:51.232Z,10.56
2022-09-21T16:15:30.308Z,10.69
2022-09-21T16:18:07.092Z,10.56
2022-09-21T16:20:43.950Z,10.78
2022-09-21T16:23:17.155Z,10.60
2022-09-21T16:25:44.758Z,10.57
2022-09-21T16:28:15.521Z,10.60
2022-09-21T16:30:47.314Z,10.60
2022-09-21T16:33:32.675Z,10.60
2022-09-21T16:36:00.341Z,10.56
2022-09-21T16:38:27.454Z,10.32
2022-09-21T16:40:54.918Z,10.33
2022-09-21T16:43:24.376Z,10.54
2022-09-21T16:45:51.745Z,10.53
2022-09-21T16:48:19.244Z,10.51
2022-09-21T16:50:46.565Z,10.51
2022-09-21T16:53:13.495Z,10.28
2022-09-21T16:55:43.369Z,10.44
2022-09-21T16:58:10.379Z,10.50
2022-09-21T17:00:42.094Z,10.23
2022-09-21T17:03:09.039Z,10.24
2022-09-21T17:05:36.007Z,9.96
2022-09-21T17:08:03.148Z,10.16
2022-09-21T17:10:44.889Z,10.25
2022-09-21T17:13:14.749Z,10.00
2022-09-21T17:15:47.318Z,10.04
2022-09-21T17:18:14.691Z,10.26
2022-09-21T17:20:43.881Z,10.13
2022-09-21T17:23:11.863Z,10.20
2022-09-21T17:25:38.860Z,10.15
2022-09-21T17:28:14.573Z,10.06
2022-09-21T17:30:42.671Z,10.26
2022-09-21T17:33:10.880Z,10.28
2022-09-21T17:35:40.335Z,10.26
2022-09-21T17:38:12.437Z,10.28
2022-09-21T17:40:42.717Z,10.18
2022-09-21T17:43:50.303Z,10.29
2022-09-21T17:46:23.982Z,10.26
2022-09-21T17:48:51.229Z,10.25
2022-09-21T17:51:38.348Z,10.24
2022-09-21T17:54:05.755Z,10.05
2022-09-21T17:56:59.180Z,10.18
2022-09-21T17:59:33.920Z,10.21
2022-09-21T18:02:02.245Z,9.97
2022-09-21T18:04:31.330Z,10.12
2022-09-21T18:06:59.419Z,10.02
2022-09-21T18:09:26.668Z,10.11
2022-09-21T18:12:24.166Z,10.12
2022-09-21T18:15:18.814Z,10.13
2022-09-21T18:18:06.782Z,10.13
2022-09-21T18:21:06.171Z,10.12
2022-09-21T18:23:46.812Z,10.15
2022-09-21T18:26:16.563Z,9.82
2022-09-21T18:28:57.087Z,10.09
2022-09-21T18:31:56.133Z,9.87
2022-09-21T18:34:54.871Z,10.08
2022-09-21T18:37:27.176Z,10.08
2022-09-21T18:40:22.187Z,10.10
2022-09-21T18:42:59.182Z,10.02
2022-09-21T18:45:31.974Z,10.11
2022-09-21T18:48:36.361Z,10.09
2022-09-21T18:51:21.835Z,9.99
2022-09-21T18:53:56.051Z,9.95
2022-09-21T18:56:25.009Z,10.00
2022-09-21T18:58:52.494Z,10.10
2022-09-21T19:01:22.199Z,9.90
2022-09-21T19:03:50.038Z,9.87
2022-09-21T19:07:10.906Z,9.91
2022-09-21T19:10:05.449Z,9.84
2022-09-21T19:12:44.262Z,9.75
2022-09-21T19:15:58.694Z,9.65
2022-09-21T19:19:17.813Z,9.58
2022-09-21T19:22:12.141Z,9.36
2022-09-21T19:24:56.131Z,9.23
2022-09-21T19:27:29.992Z,9.44
2022-09-21T19:30:06.681Z,9.33
2022-09-21T19:32:36.523Z,9.32
2022-09-21T19:35:33.720Z,9.08
2022-09-21T19:38:03.530Z,9.20
2022-09-21T19:40:33.786Z,9.30
2022-09-21T19:43:28.538Z,9.13
2022-09-21T19:46:05.206Z,9.01
2022-09-21T19:49:01.592Z,9.00
2022-09-21T19:51:40.437Z,8.85
2022-09-21T19:54:34.939Z,8.79
2022-09-21T19:57:21.050Z,8.87
2022-09-21T19:59:49.745Z,8.67
2022-09-21T20:02:28.761Z,8.64
2022-09-21T20:04:58.355Z,8.52
2022-09-21T20:07:53.337Z,8.64
2022-09-21T20:10:22.997Z,8.53
2022-09-21T20:12:59.583Z,8.57
2022-09-21T20:15:47.241Z,8.52
2022-09-21T20:18:54.037Z,8.54
2022-09-21T20:21:22.417Z,8.41
2022-09-21T20:23:59.445Z,8.57
2022-09-21T20:26:27.777Z,8.47
2022-09-21T20:28:55.340Z,8.12
2022-09-21T20:31:25.116Z,8.19
2022-09-21T20:33:52.192Z,8.26
2022-09-21T20:36:19.097Z,8.39
2022-09-21T20:38:45.991Z,8.34
2022-09-21T20:41:15.586Z,8.32
2022-09-21T20:43:43.346Z,8.32
2022-09-21T20:46:11.211Z,8.36
2022-09-21T20:48:38.511Z,8.28
2022-09-21T20:51:06.308Z,7.99
2022-09-21T20:53:34.434Z,8.28
2022-09-21T20:56:02.112Z,8.16
2022-09-21T20:58:34.129Z,8.27
2022-09-21T21:01:08.856Z,8.22
2022-09-21T21:03:35.711Z,8.29
2022-09-21T21:06:13.986Z,8.28
2022-09-21T21:08:41.170Z,8.07
2022-09-21T21:11:08.115Z,8.30
2022-09-21T21:13:34.977Z,7.94
2022-09-21T21:16:08.166Z,8.22
2022-09-21T21:18:42.131Z,8.32
2022-09-21T21:21:09.577Z,8.25
2022-09-21T21:23:57.053Z,8.25
2022-09-21T21:26:43.837Z,8.16
2022-09-21T21:29:12.484Z,8.17
2022-09-21T21:31:40.152Z,7.98
2022-09-21T21:34:07.165Z,7.95
2022-09-21T21:36:34.250Z,7.74
2022-09-21T21:39:01.156Z,7.95
2022-09-21T21:41:28.181Z,7.95
2022-09-21T21:43:55.123Z,8.12
2022-09-21T21:46:22.700Z,8.12
2022-09-21T21:48:49.782Z,7.91
2022-09-21T21:51:16.726Z,7.93
2022-09-21T21:53:44.720Z,7.99
2022-09-21T21:56:16.729Z,8.17
2022-09-21T21:58:44.123Z,8.05
2022-09-21T22:01:21.678Z,8.03
2022-09-21T22:03:53.922Z,7.94
2022-09-21T22:06:21.145Z,8.05
2022-09-21T22:08:48.404Z,7.82
2022-09-21T22:11:17.531Z,7.85
2022-09-21T22:13:45.536Z,8.15
2022-09-21T22:16:17.714Z,8.02
2022-09-21T22:18:46.396Z,7.78
2022-09-21T22:21:17.849Z,7.76
2022-09-21T22:23:44.701Z,8.05
2022-09-21T22:26:14.096Z,8.14
2022-09-21T22:28:43.560Z,8.11
2022-09-21T22:31:16.365Z,8.07
2022-09-21T22:33:43.953Z,8.04
2022-09-21T22:36:13.330Z,7.81
2022-09-21T22:38:43.085Z,7.99
2022-09-21T22:41:43.082Z,7.85
2022-09-21T22:44:11.147Z,8.03
2022-09-21T22:46:38.885Z,7.94
2022-09-21T22:49:06.230Z,7.98
2022-09-21T22:51:33.851Z,7.93
2022-09-21T22:54:01.842Z,7.73
2022-09-21T22:56:31.070Z,7.86
2022-09-21T22:59:00.391Z,7.89
2022-09-21T23:01:37.128Z,7.64
2022-09-21T23:04:13.392Z,7.67
2022-09-21T23:06:43.495Z,7.82
2022-09-21T23:09:18.006Z,7.63
2022-09-21T23:11:48.129Z,7.77
2022-09-21T23:14:16.518Z,7.70
2022-09-21T23:16:43.572Z,7.83
2022-09-21T23:19:15.815Z,7.77
2022-09-21T23:21:46.670Z,7.71
2022-09-21T23:24:13.647Z,7.72
2022-09-21T23:26:40.561Z,7.59
2022-09-21T23:29:12.690Z,7.75
2022-09-21T23:31:44.472Z,7.71
2022-09-21T23:34:12.849Z,7.55
2022-09-21T23:36:40.817Z,7.55
2022-09-21T23:39:11.733Z,7.72
2022-09-21T23:41:39.081Z,7.38
2022-09-21T23:44:06.523Z,7.67
2022-09-21T23:46:36.392Z,7.65
2022-09-21T23:49:04.268Z,7.38
2022-09-21T23:51:32.026Z,7.43
2022-09-21T23:53:59.787Z,7.37
2022-09-21T23:56:27.317Z,7.71
2022-09-21T23:58:54.705Z,7.57
